Time;durP1;ratioP1;P1;durP2;ratioP2;P2;SDS_P1;SDS_P2;PMS_P1;PMS_P2;Temp;Humidity;BMP_temperature;BMP_pressure;BME280_temperature;BME280_humidity;BME280_pressure;Samples;Min_cycle;Max_cycle;Signal;HPM_P1;HPM_P2
2022/06/04 00:03:17;;;;;;;4.28;1.40;;;14.90;99.90;;;;;;12187113;29;20143;-84
2022/06/04 00:09:24;;;;;;;2.90;1.60;;;14.90;99.90;;;;;;12197900;29;20555;-84
2022/06/04 00:15:33;;;;;;;3.88;1.48;;;14.80;99.90;;;;;;12181836;29;20111;-84
2022/06/04 00:21:35;;;;;;;5.35;1.75;;;14.70;99.90;;;;;;12199956;29;20438;-84
2022/06/04 00:27:36;;;;;;;4.10;1.73;;;14.80;99.90;;;;;;12210432;29;20056;-85
2022/06/04 00:33:39;;;;;;;4.32;1.85;;;14.70;99.90;;;;;;12205240;29;20056;-84
2022/06/04 00:39:41;;;;;;;2.90;1.90;;;14.60;99.90;;;;;;12204777;29;20134;-84
2022/06/04 00:45:58;;;;;;;3.70;1.70;;;14.50;99.90;;;;;;12195404;29;20674;-84
2022/06/04 00:52:00;;;;;;;5.65;1.80;;;14.50;99.90;;;;;;12184662;29;20056;-84
2022/06/04 00:58:46;;;;;;;3.88;2.20;;;14.40;99.90;;;;;;12181955;29;20052;-84
2022/06/04 01:05:08;;;;;;;6.80;2.13;;;14.20;99.90;;;;;;12193268;29;20087;-84
2022/06/04 01:11:27;;;;;;;3.45;2.05;;;14.20;99.90;;;;;;12192553;29;20055;-84
2022/06/04 01:18:22;;;;;;;3.35;2.20;;;14.10;99.90;;;;;;12190038;29;20122;-84
2022/06/04 01:24:27;;;;;;;;;;;14.00;99.90;;;;;;12202594;29;20052;-84
2022/06/04 01:30:39;;;;;;;6.38;2.67;;;13.90;99.90;;;;;;12192745;29;19946;-84
2022/06/04 01:36:50;;;;;;;6.45;2.83;;;13.80;99.90;;;;;;12190577;29;20211;-84
2022/06/04 01:42:53;;;;;;;6.65;3.00;;;13.70;99.90;;;;;;12214228;29;20172;-84
2022/06/04 01:48:59;;;;;;;4.90;2.75;;;13.70;99.90;;;;;;12192678;29;20060;-84
2022/06/04 01:55:21;;;;;;;4.80;3.17;;;13.70;99.90;;;;;;12208722;29;20097;-84
2022/06/04 02:01:28;;;;;;;6.65;3.10;;;13.50;99.90;;;;;;12205452;29;20107;-84
2022/06/04 02:07:34;;;;;;;5.22;3.08;;;13.50;99.90;;;;;;12209566;29;20056;-84
2022/06/04 02:13:37;;;;;;;4.25;3.10;;;13.40;99.90;;;;;;12187374;29;20084;-84
2022/06/04 02:19:39;;;;;;;6.15;3.22;;;13.30;99.90;;;;;;12197758;29;20056;-84
2022/06/04 02:25:41;;;;;;;5.25;3.00;;;13.30;99.90;;;;;;12214082;29;20197;-84
2022/06/04 02:32:13;;;;;;;3.25;2.47;;;13.20;99.90;;;;;;12215507;29;20111;-85
2022/06/04 02:38:43;;;;;;;6.35;3.28;;;13.30;99.90;;;;;;12219083;29;20493;-84
2022/06/04 02:44:50;;;;;;;7.18;3.08;;;13.40;99.90;;;;;;12188995;29;20181;-84
2022/06/04 02:51:05;;;;;;;6.40;3.28;;;13.40;99.90;;;;;;12206120;29;20060;-84
2022/06/04 02:57:10;;;;;;;5.45;2.97;;;13.40;99.90;;;;;;12200410;29;20184;-83
2022/06/04 03:03:13;;;;;;;3.78;2.90;;;13.20;99.90;;;;;;12199644;29;20060;-83
2022/06/04 03:09:18;;;;;;;4.25;3.20;;;13.00;99.90;;;;;;12216294;29;20052;-83
2022/06/04 03:15:21;;;;;;;5.32;2.80;;;12.80;99.90;;;;;;12179770;29;20497;-84
2022/06/04 03:21:23;;;;;;;6.63;2.88;;;12.70;99.90;;;;;;12196023;29;20067;-84
2022/06/04 03:27:25;;;;;;;6.28;3.03;;;12.80;99.90;;;;;;12189623;29;20138;-83
2022/06/04 03:33:27;;;;;;;5.05;3.17;;;12.90;99.90;;;;;;12181367;29;20521;-84
2022/06/04 03:39:29;;;;;;;5.53;3.00;;;12.80;99.90;;;;;;12195773;29;20067;-83
2022/06/04 03:45:31;;;;;;;7.32;3.08;;;12.70;99.90;;;;;;12195000;29;20064;-83
2022/06/04 03:51:33;;;;;;;5.82;2.85;;;12.70;99.90;;;;;;12206878;29;20121;-84
2022/06/04 03:57:48;;;;;;;7.85;3.25;;;12.90;99.90;;;;;;12213210;29;20111;-83
2022/06/04 04:03:51;;;;;;;4.85;3.08;;;13.00;99.90;;;;;;12191311;29;20068;-83
2022/06/04 04:09:52;;;;;;;6.28;3.10;;;13.10;99.90;;;;;;12197719;29;20060;-84
2022/06/04 04:15:56;;;;;;;5.53;2.97;;;13.20;99.90;;;;;;12183543;29;20483;-83
2022/06/04 04:21:58;;;;;;;6.80;3.00;;;13.30;99.90;;;;;;12204915;29;20098;-84
2022/06/04 04:28:00;;;;;;;4.70;2.90;;;13.30;99.90;;;;;;12198800;29;20131;-84
2022/06/04 04:34:02;;;;;;;3.72;2.40;;;13.10;99.90;;;;;;12184019;29;20052;-83
2022/06/04 04:40:06;;;;;;;7.55;3.00;;;13.20;99.90;;;;;;12197432;29;20138;-83
2022/06/04 04:46:10;;;;;;;5.55;2.88;;;13.20;99.90;;;;;;12195138;29;20177;-83
2022/06/04 04:52:13;;;;;;;5.35;3.00;;;13.10;99.90;;;;;;12207303;29;20057;-84
2022/06/04 04:58:15;;;;;;;3.80;2.65;;;13.10;99.90;;;;;;12211365;29;20428;-85
2022/06/04 05:04:17;;;;;;;6.35;2.60;;;13.10;99.90;;;;;;12195797;29;20060;-84
2022/06/04 05:10:18;;;;;;;6.82;2.70;;;13.00;99.90;;;;;;12214874;29;20235;-84
2022/06/04 05:16:23;;;;;;;5.57;2.50;;;13.00;99.90;;;;;;12196987;29;20056;-84
2022/06/04 05:22:25;;;;;;;;;;;13.00;99.90;;;;;;12212816;29;20060;-84
2022/06/04 05:28:27;;;;;;;3.88;2.55;;;13.30;99.90;;;;;;12219671;29;20352;-84
2022/06/04 05:34:29;;;;;;;6.10;2.38;;;13.30;99.90;;;;;;12202053;29;20164;-84
2022/06/04 05:40:31;;;;;;;3.45;2.30;;;13.30;99.90;;;;;;12212247;29;20415;-84
2022/06/04 05:46:33;;;;;;;5.22;2.85;;;13.20;99.90;;;;;;12194492;29;20188;-84
2022/06/04 05:52:35;;;;;;;3.28;2.33;;;13.10;99.90;;;;;;12203681;29;20570;-84
2022/06/04 05:58:38;;;;;;;4.80;2.30;;;13.10;99.90;;;;;;12210002;29;20154;-85
2022/06/04 06:04:40;;;;;;;6.35;2.50;;;13.10;99.90;;;;;;12184580;29;20216;-84
2022/06/04 06:10:44;;;;;;;4.40;2.60;;;13.20;99.90;;;;;;12216905;29;20056;-84
2022/06/04 06:16:48;;;;;;;5.32;2.50;;;13.20;99.90;;;;;;12209548;29;20064;-84
2022/06/04 06:22:50;;;;;;;4.85;2.63;;;13.30;99.90;;;;;;12201110;29;20083;-84
2022/06/04 06:28:52;;;;;;;4.57;2.75;;;13.50;99.90;;;;;;12189262;29;20282;-84
2022/06/04 06:34:54;;;;;;;4.80;2.90;;;13.60;99.90;;;;;;12192847;29;20499;-85
2022/06/04 06:40:57;;;;;;;5.10;2.72;;;13.90;99.90;;;;;;12195685;29;20064;-85
2022/06/04 06:46:59;;;;;;;4.13;2.90;;;14.00;99.90;;;;;;12178111;29;20460;-85
2022/06/04 06:53:02;;;;;;;4.28;2.70;;;14.10;99.90;;;;;;12204952;29;20048;-85
2022/06/04 06:59:04;;;;;;;7.45;2.90;;;14.30;99.90;;;;;;12208918;29;20668;-84
2022/06/04 07:05:07;;;;;;;4.38;2.67;;;14.30;99.90;;;;;;12183651;29;20091;-84
2022/06/04 07:11:10;;;;;;;5.13;2.45;;;14.40;99.90;;;;;;12204010;29;20132;-84
2022/06/04 07:17:12;;;;;;;5.50;2.53;;;14.40;99.90;;;;;;12198001;29;20056;-84
2022/06/04 07:23:14;;;;;;;3.90;2.50;;;14.40;99.90;;;;;;12191168;29;20094;-84
2022/06/04 07:29:16;;;;;;;5.82;3.00;;;14.60;99.90;;;;;;12185835;29;20048;-85
2022/06/04 07:35:18;;;;;;;4.15;2.22;;;14.70;99.90;;;;;;12181360;29;20444;-84
2022/06/04 07:41:25;;;;;;;6.05;2.58;;;14.80;99.90;;;;;;12203237;29;20075;-85
2022/06/04 07:47:27;;;;;;;4.40;2.65;;;15.20;99.90;;;;;;12180179;29;20132;-85
2022/06/04 07:53:29;;;;;;;5.28;2.70;;;15.50;99.90;;;;;;12180419;29;20063;-85
2022/06/04 07:59:31;;;;;;;2.97;2.13;;;15.80;99.90;;;;;;12195310;29;20087;-85
2022/06/04 08:05:34;;;;;;;5.32;2.10;;;15.90;99.90;;;;;;12193505;29;20060;-85
2022/06/04 08:11:43;;;;;;;3.92;2.17;;;16.00;99.90;;;;;;12202687;29;20048;-84
2022/06/04 08:17:47;;;;;;;3.28;2.20;;;16.00;99.90;;;;;;12188011;29;20083;-85
2022/06/04 08:23:49;;;;;;;5.20;2.15;;;16.10;99.90;;;;;;12185715;29;20059;-85
2022/06/04 08:29:51;;;;;;;5.82;2.88;;;16.20;99.90;;;;;;12206926;29;20506;-85
2022/06/04 08:35:59;;;;;;;4.50;2.30;;;16.30;99.90;;;;;;12185748;29;20056;-85
2022/06/04 08:42:10;;;;;;;9.73;2.60;;;16.40;99.90;;;;;;12200664;29;20513;-85
2022/06/04 08:48:25;;;;;;;3.42;2.20;;;16.40;99.90;;;;;;12208998;29;20186;-85
2022/06/04 09:00:58;;;;;;;4.85;2.97;;;16.80;99.90;;;;;;12190194;29;20139;-85
2022/06/04 09:07:10;;;;;;;4.57;2.70;;;17.10;99.90;;;;;;12218812;29;21175;-85
2022/06/04 09:13:23;;;;;;;3.90;2.40;;;17.20;99.90;;;;;;12178380;29;20084;-85
2022/06/04 09:19:34;;;;;;;5.00;2.50;;;17.30;99.90;;;;;;12184988;29;20507;-84
2022/06/04 09:26:05;;;;;;;4.03;2.53;;;17.60;99.90;;;;;;12198815;29;20099;-85
2022/06/04 09:32:25;;;;;;;7.13;2.70;;;17.70;99.90;;;;;;12173356;29;20541;-86
2022/06/04 09:38:31;;;;;;;4.72;2.40;;;17.80;99.90;;;;;;12193931;29;20052;-86
2022/06/04 09:44:37;;;;;;;5.07;2.72;;;17.90;99.90;;;;;;12195640;29;20084;-86
2022/06/04 09:50:40;;;;;;;3.65;2.60;;;18.00;99.90;;;;;;12196933;29;20416;-85
2022/06/04 09:56:43;;;;;;;5.80;2.65;;;18.20;99.90;;;;;;12219412;29;20164;-85
2022/06/04 10:03:04;;;;;;;4.97;2.58;;;18.20;99.90;;;;;;12212724;29;20515;-86
2022/06/04 10:15:44;;;;;;;6.10;2.72;;;18.70;99.90;;;;;;12207410;29;20123;-85
2022/06/04 10:21:49;;;;;;;5.90;2.70;;;19.10;99.90;;;;;;12224292;29;20056;-86
2022/06/04 10:28:13;;;;;;;6.22;2.95;;;19.10;99.90;;;;;;12196202;29;20080;-85
2022/06/04 10:34:15;;;;;;;5.25;2.80;;;19.00;99.90;;;;;;12198726;29;20057;-85
2022/06/04 10:40:54;;;;;;;7.10;2.78;;;19.00;99.90;;;;;;12193922;29;20144;-86
2022/06/04 10:47:23;;;;;;;6.40;3.00;;;18.80;99.90;;;;;;12182542;29;20056;-86
2022/06/04 10:53:49;;;;;;;5.55;2.72;;;19.00;99.90;;;;;;12183968;29;20545;-86
2022/06/04 11:00:12;;;;;;;6.30;3.10;;;18.80;99.90;;;;;;12189752;29;20087;-86
2022/06/04 11:06:24;;;;;;;3.65;2.58;;;18.70;99.90;;;;;;12202716;29;20067;-86
2022/06/04 11:12:45;;;;;;;4.05;2.50;;;18.60;99.90;;;;;;12176111;29;20103;-86
2022/06/04 11:19:18;;;;;;;4.45;2.67;;;18.70;99.90;;;;;;12205577;29;20524;-85
2022/06/04 11:25:27;;;;;;;4.38;2.38;;;18.70;99.90;;;;;;12188129;29;20114;-87
2022/06/04 11:31:54;;;;;;;7.13;2.75;;;18.60;99.90;;;;;;12187655;29;20143;-86
2022/06/04 11:38:27;;;;;;;3.60;2.40;;;18.60;99.90;;;;;;12185283;29;20067;-85
2022/06/04 11:44:55;;;;;;;3.50;2.43;;;18.70;99.90;;;;;;12192573;29;20052;-86
2022/06/04 11:51:27;;;;;;;3.70;2.33;;;18.90;99.90;;;;;;12209224;29;20308;-86
2022/06/04 11:58:12;;;;;;;3.45;2.15;;;18.90;99.90;;;;;;12213517;29;20143;-86
2022/06/04 12:04:33;;;;;;;5.97;2.90;;;18.90;99.90;;;;;;12195546;29;20064;-86
2022/06/04 12:10:55;;;;;;;5.22;2.70;;;19.00;99.90;;;;;;12198576;29;20151;-86
2022/06/04 12:17:22;;;;;;;4.38;2.60;;;18.90;99.90;;;;;;12186133;29;20080;-86
2022/06/04 12:29:56;;;;;;;3.67;2.30;;;19.00;99.90;;;;;;12199418;29;20053;-86
2022/06/04 12:36:07;;;;;;;7.05;2.53;;;18.90;99.90;;;;;;12186500;29;20180;-86
2022/06/04 12:42:13;;;;;;;6.80;2.45;;;19.00;99.90;;;;;;12196566;29;20541;-86
2022/06/04 12:48:36;;;;;;;6.60;2.72;;;19.10;99.90;;;;;;12193921;29;20052;-86
2022/06/04 12:55:22;;;;;;;4.30;2.33;;;19.10;99.90;;;;;;12200096;29;20885;-87
2022/06/04 13:01:37;;;;;;;4.22;2.38;;;19.10;99.90;;;;;;12155617;29;20059;-85
2022/06/04 13:08:04;;;;;;;3.95;2.65;;;19.20;99.90;;;;;;12186548;29;20044;-86
2022/06/04 13:14:32;;;;;;;9.77;3.13;;;19.30;99.90;;;;;;12216247;29;20056;-86
2022/06/04 13:20:45;;;;;;;4.25;2.38;;;19.50;99.90;;;;;;12213033;29;20071;-87
2022/06/04 13:27:10;;;;;;;2.95;2.10;;;19.90;99.90;;;;;;12210894;29;20063;-87
2022/06/04 13:33:14;;;;;;;3.90;2.28;;;20.30;99.90;;;;;;12189569;29;20144;-86
2022/06/04 13:39:18;;;;;;;4.00;1.83;;;20.70;99.90;;;;;;12202575;29;20563;-87
2022/06/04 13:45:29;;;;;;;4.45;2.42;;;20.90;99.90;;;;;;12186660;29;20184;-86
2022/06/04 13:51:30;;;;;;;3.53;1.98;;;21.10;99.90;;;;;;12201938;29;20553;-86
2022/06/04 13:57:45;;;;;;;3.83;2.13;;;21.00;99.90;;;;;;12199324;29;20517;-87
2022/06/04 14:05:43;;;;;;;5.68;2.17;;;21.00;99.90;;;;;;12203272;29;20052;-88
2022/06/04 14:10:22;;;;;;;3.42;2.10;;;21.10;99.90;;;;;;12198513;29;20659;-87
2022/06/04 14:16:45;;;;;;;4.43;2.33;;;21.00;99.90;;;;;;12182294;29;20080;-87
2022/06/04 14:23:05;;;;;;;6.03;2.10;;;21.00;99.90;;;;;;12188762;29;20051;-87
2022/06/04 14:29:40;;;;;;;5.05;2.15;;;21.20;99.90;;;;;;12206668;29;20353;-86
2022/06/04 14:35:42;;;;;;;3.05;1.80;;;21.30;99.90;;;;;;12178230;29;20142;-86
2022/06/04 14:42:10;;;;;;;4.13;2.40;;;21.20;99.90;;;;;;12203827;29;20436;-87
2022/06/04 14:48:54;;;;;;;3.97;2.28;;;21.30;99.90;;;;;;12193850;29;20145;-87
2022/06/04 14:55:01;;;;;;;6.03;2.20;;;21.30;99.90;;;;;;12202239;29;20071;-87
2022/06/04 15:01:51;;;;;;;6.03;2.30;;;21.30;99.90;;;;;;12189665;29;20048;-87
2022/06/04 15:08:14;;;;;;;6.55;2.45;;;21.40;99.90;;;;;;12177474;29;20507;-86
2022/06/04 15:14:19;;;;;;;4.07;2.30;;;21.60;99.90;;;;;;12174931;29;20159;-86
2022/06/04 15:20:49;;;;;;;4.40;2.20;;;21.50;99.90;;;;;;12199610;29;20099;-86
2022/06/04 15:27:09;;;;;;;7.63;2.72;;;21.50;99.90;;;;;;12207157;29;20052;-86
2022/06/04 15:40:08;;;;;;;6.53;2.42;;;21.80;99.90;;;;;;12190873;29;20135;-86
2022/06/04 15:46:20;;;;;;;4.25;2.30;;;21.70;99.90;;;;;;12197525;29;20485;-86
2022/06/04 15:59:08;;;;;;;2.85;2.00;;;21.60;99.90;;;;;;12195817;29;20127;-88
2022/06/04 16:05:36;;;;;;;3.80;2.40;;;21.60;99.90;;;;;;12172152;29;20134;-86
2022/06/04 16:12:09;;;;;;;5.70;2.00;;;21.60;99.90;;;;;;12181399;29;20195;-86
2022/06/04 16:18:29;;;;;;;3.23;2.20;;;21.60;99.90;;;;;;12191389;29;20048;-86
2022/06/04 16:24:47;;;;;;;4.35;2.40;;;21.60;99.90;;;;;;12173213;29;20425;-87
2022/06/04 16:31:04;;;;;;;4.95;2.22;;;21.60;99.90;;;;;;12196277;29;20460;-86
2022/06/04 16:37:11;;;;;;;4.22;2.08;;;21.60;99.90;;;;;;12194025;29;20072;-87
2022/06/04 16:43:14;;;;;;;3.38;2.25;;;21.50;99.90;;;;;;12225135;29;20068;-85
2022/06/04 16:55:37;;;;;;;3.67;2.25;;;21.30;99.90;;;;;;12216636;29;20127;-86
2022/06/04 17:01:59;;;;;;;3.25;2.20;;;21.40;99.90;;;;;;12185778;29;20060;-87
2022/06/04 17:08:10;;;;;;;4.63;2.33;;;21.60;99.90;;;;;;12184567;29;20048;-87
2022/06/04 17:14:42;;;;;;;3.55;2.33;;;21.60;99.90;;;;;;12185283;29;20052;-87
2022/06/04 17:21:16;;;;;;;3.45;2.20;;;21.60;99.90;;;;;;12192872;29;20056;-87
2022/06/04 17:27:21;;;;;;;6.00;2.20;;;21.80;99.90;;;;;;12183925;29;20108;-87
2022/06/04 17:33:47;;;;;;;3.72;2.42;;;21.60;99.90;;;;;;12181019;29;20444;-87
2022/06/04 17:40:00;;;;;;;4.80;2.20;;;21.60;99.90;;;;;;12171043;29;20068;-85
2022/06/04 17:46:02;;;;;;;3.40;2.10;;;21.70;99.90;;;;;;12178216;29;20051;-86
2022/06/04 17:52:06;;;;;;;5.53;2.20;;;22.00;99.90;;;;;;12195999;29;20056;-85
2022/06/04 17:58:08;;;;;;;4.10;2.58;;;22.20;99.90;;;;;;12206942;29;20139;-86
2022/06/04 18:04:10;;;;;;;5.22;2.40;;;22.10;99.90;;;;;;12199843;29;20056;-85
2022/06/04 18:10:12;;;;;;;3.90;2.33;;;21.90;99.90;;;;;;12182708;29;20052;-86
2022/06/04 18:16:14;;;;;;;4.70;2.47;;;21.30;99.90;;;;;;12186895;29;20191;-86
2022/06/04 18:22:16;;;;;;;3.58;2.42;;;20.90;99.90;;;;;;12190797;29;20056;-85
2022/06/04 18:28:19;;;;;;;4.15;2.38;;;20.70;99.90;;;;;;12188517;29;20048;-85
2022/06/04 18:34:22;;;;;;;5.47;3.20;;;20.50;99.90;;;;;;12186471;29;20416;-86
2022/06/04 18:40:24;;;;;;;6.45;2.75;;;20.40;99.90;;;;;;12183624;29;20094;-85
2022/06/04 18:59:12;;;;;;;4.70;2.60;;;19.90;99.90;;;;;;12199997;29;20147;-85
2022/06/04 19:05:14;;;;;;;6.13;2.70;;;19.70;99.90;;;;;;12186139;29;20084;-85
2022/06/04 19:17:47;;;;;;;4.47;2.90;;;19.50;99.90;;;;;;12211870;29;20111;-85
2022/06/04 19:30:11;;;;;;;3.97;2.60;;;19.20;99.90;;;;;;12201921;29;20106;-85
2022/06/04 19:36:13;;;;;;;3.58;2.50;;;19.10;99.90;;;;;;12187232;29;20140;-84
2022/06/04 19:42:15;;;;;;;5.82;2.30;;;19.10;99.90;;;;;;12179626;29;20064;-85
2022/06/04 19:48:17;;;;;;;4.47;2.70;;;19.00;99.90;;;;;;12200645;29;20090;-85
2022/06/04 20:00:42;;;;;;;5.63;2.58;;;18.80;99.90;;;;;;12210546;29;20115;-84
2022/06/04 20:06:44;;;;;;;3.92;2.60;;;18.70;99.90;;;;;;12186306;29;20056;-84
2022/06/04 20:12:47;;;;;;;6.70;2.50;;;18.60;99.90;;;;;;12199384;29;20060;-84
2022/06/04 20:18:49;;;;;;;5.32;2.30;;;18.50;99.90;;;;;;12180410;29;20053;-84
2022/06/04 20:24:51;;;;;;;4.65;2.40;;;18.40;99.90;;;;;;12189406;29;20088;-85
2022/06/04 20:30:57;;;;;;;4.20;2.60;;;18.40;99.90;;;;;;12182520;29;20056;-84
2022/06/04 20:36:59;;;;;;;4.85;2.38;;;18.30;99.90;;;;;;12178000;29;20180;-84
2022/06/04 20:43:02;;;;;;;3.88;2.00;;;18.20;99.90;;;;;;12182766;29;20119;-84
2022/06/04 20:49:11;;;;;;;4.40;2.50;;;18.10;99.90;;;;;;12195518;29;20052;-84
2022/06/04 20:55:13;;;;;;;5.00;2.78;;;18.10;99.90;;;;;;12204126;29;20300;-84
2022/06/04 21:01:15;;;;;;;4.07;2.60;;;18.00;99.90;;;;;;12183559;29;20068;-84
2022/06/04 21:07:19;;;;;;;9.40;2.35;;;17.90;99.90;;;;;;12183053;29;20138;-83
2022/06/04 21:13:21;;;;;;;4.78;2.38;;;17.90;99.90;;;;;;12201147;29;20056;-83
2022/06/04 21:19:23;;;;;;;5.97;2.80;;;17.80;99.90;;;;;;12184150;29;20071;-84
2022/06/04 21:25:25;;;;;;;4.47;2.90;;;17.80;99.90;;;;;;12185852;29;21289;-84
2022/06/04 21:31:29;;;;;;;6.18;2.97;;;17.70;99.90;;;;;;12182458;29;20139;-83
2022/06/04 21:37:49;;;;;;;6.32;3.10;;;17.40;99.90;;;;;;12191089;29;20135;-83
2022/06/04 21:43:51;;;;;;;4.43;2.67;;;17.20;99.90;;;;;;12200429;29;20556;-83
2022/06/04 21:49:54;;;;;;;4.45;2.80;;;17.10;99.90;;;;;;12184864;29;20572;-83
2022/06/04 21:55:56;;;;;;;8.02;2.85;;;17.00;99.90;;;;;;12191682;29;20055;-83
2022/06/04 22:01:57;;;;;;;3.67;2.40;;;16.90;99.90;;;;;;12183865;29;20124;-83
2022/06/04 22:08:00;;;;;;;6.00;2.65;;;16.80;99.90;;;;;;12202045;29;20052;-83
2022/06/04 22:14:02;;;;;;;3.78;2.45;;;16.70;99.90;;;;;;12186294;29;20592;-84
2022/06/04 22:20:06;;;;;;;3.80;2.45;;;16.70;99.90;;;;;;12194890;29;20056;-83
2022/06/04 22:26:08;;;;;;;3.75;2.42;;;16.80;99.90;;;;;;12187395;29;20527;-83
2022/06/04 22:32:11;;;;;;;4.22;2.55;;;16.80;99.90;;;;;;12183112;29;20452;-83
2022/06/04 22:38:17;;;;;;;5.33;2.80;;;16.70;99.90;;;;;;12183360;29;20188;-83
2022/06/04 22:44:19;;;;;;;3.47;2.58;;;16.70;99.90;;;;;;12185446;29;20091;-83
2022/06/04 22:50:21;;;;;;;3.75;2.60;;;16.60;99.90;;;;;;12202723;29;20397;-83
2022/06/04 22:56:22;;;;;;;4.55;2.80;;;16.40;99.90;;;;;;12183799;29;20060;-83
2022/06/04 23:02:24;;;;;;;5.43;2.90;;;16.50;99.90;;;;;;12186194;29;20060;-84
2022/06/04 23:08:26;;;;;;;5.93;3.60;;;16.60;99.90;;;;;;12200406;29;20044;-83
2022/06/04 23:20:52;;;;;;;5.10;3.20;;;16.50;99.90;;;;;;12203113;29;20059;-83
2022/06/04 23:26:54;;;;;;;5.90;3.47;;;16.50;99.90;;;;;;12184900;29;20175;-83
2022/06/04 23:32:56;;;;;;;5.53;3.58;;;16.50;99.90;;;;;;12190694;29;20076;-84
2022/06/04 23:38:59;;;;;;;5.05;3.45;;;16.30;99.90;;;;;;12189071;29;20095;-83
2022/06/04 23:45:00;;;;;;;5.72;3.58;;;16.30;99.90;;;;;;12197757;29;20140;-83
2022/06/04 23:51:02;;;;;;;4.72;3.30;;;16.10;99.90;;;;;;12216750;29;20149;-83
2022/06/04 23:57:04;;;;;;;6.82;3.10;;;16.20;99.90;;;;;;12200010;29;20528;-83
